Time;durP1;ratioP1;P1;durP2;ratioP2;P2;SDS_P1;SDS_P2;PMS_P1;PMS_P2;Temp;Humidity;BMP_temperature;BMP_pressure;BME280_temperature;BME280_humidity;BME280_pressure;Samples;Min_cycle;Max_cycle;Signal;HPM_P1;HPM_P2
2023/06/05 00:01:02;;;;;;;3.22;1.52;;;12.10;99.70;;;;;;5026781;28;20056;-76
2023/06/05 00:03:29;;;;;;;3.72;1.70;;;12.00;99.60;;;;;;5023766;28;20559;-76
2023/06/05 00:05:55;;;;;;;5.90;1.70;;;12.00;99.60;;;;;;5026545;28;20048;-76
2023/06/05 00:08:21;;;;;;;3.92;1.60;;;11.90;99.70;;;;;;5041755;28;20481;-76
2023/06/05 00:10:47;;;;;;;2.78;1.30;;;11.90;99.70;;;;;;5021435;28;20037;-76
2023/06/05 00:13:12;;;;;;;6.95;1.60;;;11.80;99.70;;;;;;5023767;28;20117;-76
2023/06/05 00:15:38;;;;;;;3.88;1.80;;;11.80;99.80;;;;;;5042312;28;20063;-76
2023/06/05 00:18:04;;;;;;;3.17;1.52;;;11.80;99.90;;;;;;5009018;28;20059;-76
2023/06/05 00:20:30;;;;;;;5.13;1.55;;;11.70;99.90;;;;;;5024894;28;20048;-76
2023/06/05 00:22:55;;;;;;;5.68;1.65;;;11.70;99.90;;;;;;5023017;28;20037;-76
2023/06/05 00:25:21;;;;;;;3.58;1.60;;;11.70;99.90;;;;;;4989488;28;20049;-77
2023/06/05 00:27:47;;;;;;;4.20;2.30;;;11.70;99.90;;;;;;4989855;28;20056;-77
2023/06/05 00:30:13;;;;;;;4.22;1.42;;;11.70;99.80;;;;;;5004265;28;20034;-76
2023/06/05 00:32:39;;;;;;;6.10;2.00;;;11.70;99.90;;;;;;4982942;28;20040;-76
2023/06/05 00:35:07;;;;;;;4.63;1.60;;;11.70;99.90;;;;;;5005133;28;20046;-76
2023/06/05 00:37:33;;;;;;;4.10;1.50;;;11.70;99.80;;;;;;5004508;28;20042;-76
2023/06/05 00:39:59;;;;;;;5.50;1.70;;;11.70;99.90;;;;;;4985244;28;20062;-76
2023/06/05 00:42:28;;;;;;;6.25;2.65;;;11.70;99.80;;;;;;4990288;28;20042;-76
2023/06/05 00:44:54;;;;;;;2.80;1.38;;;11.60;99.90;;;;;;5008660;28;20511;-76
2023/06/05 00:47:20;;;;;;;3.80;1.85;;;11.60;99.90;;;;;;4984149;28;20046;-76
2023/06/05 00:49:46;;;;;;;3.72;1.58;;;11.60;99.90;;;;;;5006436;28;20096;-76
2023/06/05 00:52:12;;;;;;;3.20;1.35;;;11.60;99.90;;;;;;4999631;28;20464;-76
2023/06/05 00:54:40;;;;;;;3.38;1.60;;;11.50;99.90;;;;;;5002520;28;20323;-76
2023/06/05 00:57:07;;;;;;;3.90;1.70;;;11.50;99.90;;;;;;5006479;28;20350;-76
2023/06/05 00:59:34;;;;;;;3.53;1.85;;;11.50;99.90;;;;;;5007236;28;20044;-76
2023/06/05 01:02:02;;;;;;;3.85;1.90;;;11.40;99.90;;;;;;5005300;28;20078;-76
2023/06/05 01:04:28;;;;;;;5.15;1.70;;;11.40;99.90;;;;;;5006952;28;20037;-76
2023/06/05 01:06:57;;;;;;;4.40;1.90;;;11.30;99.90;;;;;;5007567;28;20065;-77
2023/06/05 01:09:24;;;;;;;4.55;1.80;;;11.30;99.90;;;;;;4997218;28;20518;-76
2023/06/05 01:11:56;;;;;;;6.78;1.98;;;11.30;99.90;;;;;;5004307;28;20042;-76
2023/06/05 01:14:24;;;;;;;4.32;1.65;;;11.30;99.90;;;;;;5005565;28;20041;-76
2023/06/05 01:16:54;;;;;;;4.85;2.03;;;11.30;99.90;;;;;;4985167;28;20041;-76
2023/06/05 01:19:28;;;;;;;4.40;1.83;;;11.30;99.90;;;;;;5005106;28;20094;-76
2023/06/05 01:21:55;;;;;;;4.65;2.33;;;11.30;99.90;;;;;;4998433;28;20045;-76
2023/06/05 01:24:27;;;;;;;5.20;1.80;;;11.30;99.90;;;;;;5002645;28;20084;-76
2023/06/05 01:27:00;;;;;;;5.50;2.25;;;11.30;99.90;;;;;;5002770;28;20732;-76
2023/06/05 01:29:37;;;;;;;4.47;1.90;;;11.30;99.90;;;;;;5006979;28;20502;-76
2023/06/05 01:32:12;;;;;;;3.75;1.85;;;11.40;99.90;;;;;;4987750;28;20522;-76
2023/06/05 01:34:38;;;;;;;4.57;1.55;;;11.40;99.90;;;;;;5004513;28;20033;-76
2023/06/05 01:37:08;;;;;;;5.40;1.92;;;11.30;99.90;;;;;;4984168;28;20132;-76
2023/06/05 01:39:34;;;;;;;5.95;2.13;;;11.20;99.90;;;;;;5004567;28;20048;-76
2023/06/05 01:42:00;;;;;;;4.50;1.80;;;11.30;99.90;;;;;;5005777;28;20044;-76
2023/06/05 01:44:26;;;;;;;3.85;1.88;;;11.30;99.90;;;;;;5010359;28;20385;-76
2023/06/05 01:46:52;;;;;;;4.32;1.40;;;11.30;99.90;;;;;;5003421;28;20044;-76
2023/06/05 01:49:20;;;;;;;5.13;1.83;;;11.30;99.90;;;;;;5002579;28;20113;-76
2023/06/05 01:51:46;;;;;;;4.78;1.90;;;11.30;99.90;;;;;;5006816;28;20052;-76
2023/06/05 01:54:11;;;;;;;4.32;1.95;;;11.30;99.90;;;;;;5004254;28;20037;-76
2023/06/05 01:56:37;;;;;;;4.47;2.28;;;11.30;99.90;;;;;;5006404;28;20037;-76
2023/06/05 01:59:06;;;;;;;4.07;2.15;;;11.40;99.90;;;;;;4984588;28;20044;-76
2023/06/05 02:01:32;;;;;;;4.72;2.10;;;11.30;99.90;;;;;;4986564;28;20041;-76
2023/06/05 02:03:58;;;;;;;7.35;2.30;;;11.30;99.90;;;;;;4989656;28;20039;-76
2023/06/05 02:06:24;;;;;;;6.40;2.10;;;11.30;99.90;;;;;;4990937;28;20049;-76
2023/06/05 02:08:50;;;;;;;5.85;2.22;;;11.30;99.90;;;;;;4996392;28;20057;-76
2023/06/05 02:11:17;;;;;;;4.43;1.92;;;11.30;99.90;;;;;;5005731;28;20037;-76
2023/06/05 02:13:43;;;;;;;7.35;2.40;;;11.30;99.90;;;;;;5004109;28;20048;-76
2023/06/05 02:16:10;;;;;;;4.28;1.85;;;11.30;99.90;;;;;;5007275;28;20057;-76
2023/06/05 02:18:39;;;;;;;7.28;2.13;;;11.30;99.90;;;;;;5000387;28;20716;-76
2023/06/05 02:21:05;;;;;;;4.40;2.00;;;11.40;99.90;;;;;;4991163;28;20061;-77
2023/06/05 02:23:31;;;;;;;5.53;2.20;;;11.40;99.90;;;;;;5004811;28;20037;-76
2023/06/05 02:25:57;;;;;;;4.65;2.33;;;11.40;99.90;;;;;;5025259;28;20099;-76
2023/06/05 02:28:23;;;;;;;4.13;2.05;;;11.40;99.90;;;;;;5022205;28;20041;-76
2023/06/05 02:30:48;;;;;;;4.22;1.73;;;11.40;99.90;;;;;;5024169;28;20413;-76
2023/06/05 02:33:14;;;;;;;4.60;2.30;;;11.50;99.90;;;;;;5024092;28;20037;-76
2023/06/05 02:35:40;;;;;;;5.72;2.42;;;11.40;99.90;;;;;;5023388;28;20037;-76
2023/06/05 02:38:10;;;;;;;5.18;2.28;;;11.40;99.90;;;;;;5005291;28;20047;-76
2023/06/05 02:40:35;;;;;;;4.10;2.08;;;11.40;99.90;;;;;;5040304;28;20068;-76
2023/06/05 02:43:01;;;;;;;6.82;2.17;;;11.40;99.90;;;;;;5039951;28;20076;-76
2023/06/05 02:45:27;;;;;;;6.03;2.20;;;11.40;99.90;;;;;;5009119;28;20037;-76
2023/06/05 02:47:53;;;;;;;4.53;2.08;;;11.40;99.90;;;;;;5005591;28;20048;-76
2023/06/05 02:50:18;;;;;;;4.90;2.30;;;11.30;99.90;;;;;;5022730;28;20041;-76
2023/06/05 02:52:44;;;;;;;5.97;2.95;;;11.30;99.90;;;;;;5021677;28;20037;-76
2023/06/05 02:55:10;;;;;;;7.40;2.05;;;11.30;99.90;;;;;;5023638;28;20414;-76
2023/06/05 02:57:41;;;;;;;6.82;2.28;;;11.30;99.90;;;;;;5022893;28;20036;-76
2023/06/05 03:00:09;;;;;;;7.18;2.00;;;11.20;99.90;;;;;;5041396;28;21338;-76
2023/06/05 03:02:36;;;;;;;5.75;2.30;;;11.20;99.90;;;;;;5042262;28;20125;-76
2023/06/05 03:05:03;;;;;;;6.32;2.33;;;11.20;99.90;;;;;;5023435;28;20127;-76
2023/06/05 03:07:29;;;;;;;6.18;2.20;;;11.20;99.90;;;;;;5040637;28;20128;-76
2023/06/05 03:09:55;;;;;;;7.68;2.63;;;11.20;99.90;;;;;;5003943;28;20147;-76
2023/06/05 03:12:21;;;;;;;6.28;2.30;;;11.10;99.90;;;;;;5038946;28;20033;-76
2023/06/05 03:14:46;;;;;;;6.65;2.30;;;11.10;99.90;;;;;;5023367;28;20029;-76
2023/06/05 03:17:12;;;;;;;8.30;2.53;;;11.10;99.90;;;;;;5041776;28;20036;-76
2023/06/05 03:19:37;;;;;;;8.07;2.47;;;11.10;99.90;;;;;;5024178;28;20123;-76
2023/06/05 03:22:04;;;;;;;8.60;2.72;;;11.10;99.90;;;;;;5041528;28;20037;-76
2023/06/05 03:24:29;;;;;;;5.95;2.55;;;11.10;99.90;;;;;;5038636;28;20430;-76
2023/06/05 03:26:56;;;;;;;4.60;2.17;;;11.10;99.90;;;;;;5027259;28;20037;-76
2023/06/05 03:29:22;;;;;;;8.13;2.53;;;11.10;99.90;;;;;;5024015;28;20049;-77
2023/06/05 03:31:48;;;;;;;7.63;2.55;;;11.10;99.90;;;;;;5044262;28;20040;-76
2023/06/05 03:34:13;;;;;;;5.80;2.33;;;11.10;99.90;;;;;;5011857;28;20083;-76
2023/06/05 03:36:39;;;;;;;5.72;2.70;;;11.10;99.90;;;;;;5041965;28;20037;-77
2023/06/05 03:39:05;;;;;;;7.75;2.40;;;11.10;99.90;;;;;;5024229;28;20410;-76
2023/06/05 03:41:31;;;;;;;5.63;2.13;;;11.00;99.90;;;;;;5010675;28;20029;-76
2023/06/05 03:43:57;;;;;;;6.47;2.05;;;11.00;99.90;;;;;;5043590;28;20041;-76
2023/06/05 03:46:23;;;;;;;5.00;2.45;;;11.00;99.90;;;;;;5028121;28;20036;-77
2023/06/05 03:48:49;;;;;;;4.97;2.17;;;11.00;99.90;;;;;;5044002;28;20482;-76
2023/06/05 03:51:19;;;;;;;7.00;2.45;;;11.00;99.90;;;;;;5025838;28;20079;-77
2023/06/05 03:53:45;;;;;;;7.28;2.35;;;11.00;99.90;;;;;;5042048;28;20036;-77
2023/06/05 03:56:15;;;;;;;4.72;2.03;;;11.00;99.90;;;;;;5010255;28;20498;-76
2023/06/05 03:58:41;;;;;;;4.07;1.83;;;11.00;99.90;;;;;;5022813;28;20044;-76
2023/06/05 04:01:07;;;;;;;5.30;2.42;;;11.00;99.90;;;;;;5020731;28;20042;-77
2023/06/05 04:03:36;;;;;;;4.57;1.95;;;11.00;99.90;;;;;;5024388;28;20537;-76
2023/06/05 04:06:03;;;;;;;5.82;2.20;;;11.00;99.90;;;;;;5027040;28;20095;-77
2023/06/05 04:08:28;;;;;;;7.15;2.70;;;11.00;99.90;;;;;;5007322;28;20151;-76
2023/06/05 04:10:54;;;;;;;8.98;2.58;;;11.00;99.90;;;;;;5040017;28;20102;-77
2023/06/05 04:13:21;;;;;;;6.93;2.17;;;11.00;99.90;;;;;;5038333;28;20129;-76
2023/06/05 04:15:48;;;;;;;6.72;2.42;;;11.00;99.90;;;;;;5041389;28;20060;-77
2023/06/05 04:18:14;;;;;;;4.85;1.83;;;11.00;99.90;;;;;;5040912;28;20094;-77
2023/06/05 04:20:40;;;;;;;5.78;1.80;;;11.10;99.90;;;;;;5024921;28;20041;-77
2023/06/05 04:23:05;;;;;;;7.30;2.78;;;11.10;99.90;;;;;;5009823;28;20040;-76
2023/06/05 04:25:31;;;;;;;5.75;2.42;;;11.10;99.90;;;;;;5010356;28;20052;-77
2023/06/05 04:27:57;;;;;;;5.82;2.45;;;11.10;99.90;;;;;;5024600;28;20077;-77
2023/06/05 04:30:23;;;;;;;9.70;2.15;;;11.20;99.90;;;;;;5043673;28;20048;-76
2023/06/05 04:32:54;;;;;;;5.55;2.33;;;11.20;99.90;;;;;;5024837;28;20722;-76
2023/06/05 04:35:21;;;;;;;5.72;2.15;;;11.20;99.90;;;;;;5025142;28;20044;-76
2023/06/05 04:37:47;;;;;;;5.88;2.13;;;11.20;99.90;;;;;;5022500;28;20049;-77
2023/06/05 04:40:13;;;;;;;7.10;1.92;;;11.20;99.90;;;;;;5024722;28;20029;-77
2023/06/05 04:42:38;;;;;;;6.35;2.17;;;11.20;99.90;;;;;;5014497;28;20033;-76
2023/06/05 04:45:07;;;;;;;4.93;2.20;;;11.20;99.90;;;;;;5029259;28;20595;-77
2023/06/05 04:47:33;;;;;;;5.47;1.80;;;11.20;99.90;;;;;;5024360;28;20040;-77
2023/06/05 04:50:00;;;;;;;4.80;2.20;;;11.30;99.90;;;;;;5025113;28;20059;-77
2023/06/05 04:52:26;;;;;;;5.70;2.25;;;11.30;99.90;;;;;;5005606;28;20040;-77
2023/06/05 04:54:52;;;;;;;5.13;2.08;;;11.30;99.90;;;;;;5043953;28;20112;-76
2023/06/05 04:57:18;;;;;;;4.15;1.95;;;11.30;99.90;;;;;;5025487;28;20039;-77
2023/06/05 04:59:44;;;;;;;3.28;1.50;;;11.30;99.90;;;;;;5007623;28;20059;-77
2023/06/05 05:02:10;;;;;;;4.00;1.98;;;11.30;99.90;;;;;;5020861;28;20033;-77
2023/06/05 05:04:36;;;;;;;4.78;1.92;;;11.40;99.90;;;;;;5010560;28;20474;-77
2023/06/05 05:07:02;;;;;;;4.15;1.65;;;11.40;99.90;;;;;;5025206;28;20505;-77
2023/06/05 05:09:28;;;;;;;4.88;1.90;;;11.40;99.90;;;;;;5023848;28;20564;-77
2023/06/05 05:11:54;;;;;;;3.30;1.58;;;11.50;99.90;;;;;;5007747;28;20029;-77
2023/06/05 05:14:20;;;;;;;3.10;1.63;;;11.50;99.90;;;;;;5026409;28;20394;-77
2023/06/05 05:16:46;;;;;;;5.32;2.40;;;11.50;99.90;;;;;;5038702;28;20036;-76
2023/06/05 05:19:12;;;;;;;5.88;2.20;;;11.50;99.90;;;;;;5025163;28;20043;-77
2023/06/05 05:21:37;;;;;;;4.45;1.90;;;11.60;99.90;;;;;;5023402;28;22370;-77
2023/06/05 05:24:03;;;;;;;5.45;2.10;;;11.50;99.90;;;;;;5022985;28;20045;-76
2023/06/05 05:26:30;;;;;;;6.25;2.10;;;11.50;99.90;;;;;;5006690;28;20030;-77
2023/06/05 05:28:55;;;;;;;6.10;2.63;;;11.60;99.90;;;;;;5006879;28;20049;-77
2023/06/05 05:31:22;;;;;;;4.65;2.47;;;11.60;99.90;;;;;;5024458;28;20043;-77
2023/06/05 05:33:48;;;;;;;5.88;2.38;;;11.60;99.90;;;;;;5022690;28;20102;-76
2023/06/05 05:36:14;;;;;;;6.95;2.50;;;11.70;99.90;;;;;;5007539;28;20037;-77
2023/06/05 05:38:40;;;;;;;6.22;2.85;;;11.70;99.90;;;;;;5022835;28;20508;-77
2023/06/05 05:41:06;;;;;;;6.40;2.70;;;11.70;99.90;;;;;;5010264;28;20037;-76
2023/06/05 05:43:31;;;;;;;6.63;2.78;;;11.70;99.90;;;;;;5043741;28;20033;-77
2023/06/05 05:45:57;;;;;;;7.15;3.30;;;11.70;99.90;;;;;;5020648;28;20128;-77
2023/06/05 05:48:22;;;;;;;5.28;2.50;;;11.80;99.90;;;;;;5021179;28;20043;-77
2023/06/05 05:50:49;;;;;;;7.20;3.08;;;11.80;99.90;;;;;;5040611;28;20480;-77
2023/06/05 05:53:14;;;;;;;10.38;3.13;;;11.90;99.90;;;;;;5022518;28;20518;-77
2023/06/05 05:55:40;;;;;;;5.47;2.90;;;11.90;99.90;;;;;;5042492;28;20048;-77
2023/06/05 05:58:06;;;;;;;5.25;2.22;;;11.90;99.90;;;;;;5009540;28;20037;-77
2023/06/05 06:00:31;;;;;;;4.63;2.63;;;11.90;99.90;;;;;;5022590;28;20075;-77
2023/06/05 06:02:57;;;;;;;4.63;2.10;;;12.00;99.90;;;;;;5039018;28;20032;-77
2023/06/05 06:05:22;;;;;;;4.55;1.73;;;12.00;99.90;;;;;;5023316;28;20036;-77
2023/06/05 06:07:48;;;;;;;3.35;1.60;;;12.00;99.90;;;;;;5024397;28;20110;-77
2023/06/05 06:10:14;;;;;;;4.63;2.20;;;12.00;99.90;;;;;;5023635;28;20040;-77
2023/06/05 06:12:41;;;;;;;3.33;1.70;;;12.00;99.90;;;;;;5009549;28;20044;-77
2023/06/05 06:15:07;;;;;;;5.18;1.52;;;12.10;99.90;;;;;;5036224;28;20056;-77
2023/06/05 06:17:33;;;;;;;3.95;1.70;;;12.10;99.90;;;;;;5021055;28;20082;-77
2023/06/05 06:19:59;;;;;;;4.65;1.80;;;12.30;99.90;;;;;;5026013;28;20037;-77
2023/06/05 06:22:26;;;;;;;3.47;1.40;;;12.40;99.90;;;;;;5025911;28;20059;-77
2023/06/05 06:24:52;;;;;;;2.72;1.35;;;12.50;99.90;;;;;;5007919;28;20109;-77
2023/06/05 06:27:17;;;;;;;2.92;1.23;;;12.50;99.90;;;;;;5022077;28;20041;-76
2023/06/05 06:29:48;;;;;;;3.13;1.25;;;12.50;99.90;;;;;;5021723;28;20086;-74
2023/06/05 06:32:18;;;;;;;4.18;1.73;;;12.80;99.90;;;;;;5007857;28;20033;-77
2023/06/05 06:34:44;;;;;;;2.75;1.30;;;13.60;99.90;;;;;;5018517;28;20479;-76
2023/06/05 06:37:14;;;;;;;3.70;1.30;;;14.70;99.90;;;;;;5038712;28;20037;-77
2023/06/05 06:39:41;;;;;;;2.75;1.10;;;15.70;98.90;;;;;;5005232;28;20157;-76
2023/06/05 06:42:09;;;;;;;5.13;1.30;;;16.50;97.70;;;;;;5005773;28;20041;-76
2023/06/05 06:44:35;;;;;;;3.78;1.17;;;17.20;96.80;;;;;;5036792;28;20056;-75
2023/06/05 06:47:01;;;;;;;2.85;1.23;;;17.60;95.90;;;;;;5018171;28;20460;-76
2023/06/05 06:49:27;;;;;;;2.50;1.20;;;18.20;94.80;;;;;;5017376;28;20762;-77
2023/06/05 06:51:53;;;;;;;1.98;0.95;;;18.10;93.90;;;;;;4995568;28;20500;-76
2023/06/05 06:54:19;;;;;;;2.42;1.10;;;17.60;94.60;;;;;;5016441;28;20132;-76
2023/06/05 06:56:45;;;;;;;4.18;1.45;;;17.00;95.50;;;;;;5018980;28;20025;-77
2023/06/05 06:59:14;;;;;;;2.13;1.05;;;16.30;96.50;;;;;;5001060;28;20525;-77
2023/06/05 07:01:48;;;;;;;2.47;1.00;;;15.80;97.40;;;;;;5040898;28;20690;-77
2023/06/05 07:04:19;;;;;;;5.50;1.25;;;15.50;97.90;;;;;;5021927;28;20063;-77
2023/06/05 07:06:48;;;;;;;2.65;1.15;;;15.30;98.20;;;;;;5020163;28;20433;-76
2023/06/05 07:09:14;;;;;;;4.10;1.20;;;15.10;98.50;;;;;;5018428;28;20468;-76
2023/06/05 07:11:40;;;;;;;1.95;1.05;;;14.90;98.60;;;;;;5018301;28;20480;-76
2023/06/05 07:14:05;;;;;;;2.25;1.33;;;14.80;98.80;;;;;;5018961;28;20058;-76
2023/06/05 07:16:31;;;;;;;3.58;1.13;;;14.60;98.90;;;;;;5037125;28;20763;-76
2023/06/05 07:18:57;;;;;;;2.05;1.02;;;14.60;99.10;;;;;;5024292;28;20033;-75
2023/06/05 07:21:22;;;;;;;3.35;1.27;;;14.50;99.10;;;;;;5020258;28;20123;-75
2023/06/05 07:23:51;;;;;;;3.47;1.23;;;14.40;99.10;;;;;;5019579;28;20080;-76
2023/06/05 07:26:17;;;;;;;2.22;1.10;;;14.40;99.20;;;;;;5022421;28;20472;-76
2023/06/05 07:28:43;;;;;;;3.60;1.23;;;14.30;99.20;;;;;;5024017;28;20039;-76
2023/06/05 07:31:10;;;;;;;3.28;1.25;;;14.20;99.10;;;;;;5025547;28;20040;-76
2023/06/05 07:33:35;;;;;;;3.22;1.48;;;14.20;99.20;;;;;;5019046;28;20183;-76
2023/06/05 07:36:01;;;;;;;3.10;1.50;;;14.20;99.10;;;;;;5038260;28;20036;-76
2023/06/05 07:38:29;;;;;;;4.82;1.50;;;14.10;99.20;;;;;;5014357;28;20464;-75
2023/06/05 07:40:58;;;;;;;2.60;1.23;;;14.10;99.10;;;;;;5045177;28;20119;-75
2023/06/05 07:43:24;;;;;;;2.22;0.98;;;14.10;99.10;;;;;;5040099;28;20045;-75
2023/06/05 07:45:49;;;;;;;2.78;1.35;;;14.10;99.20;;;;;;5025346;28;20092;-76
2023/06/05 07:48:15;;;;;;;2.85;1.20;;;14.10;99.20;;;;;;5039894;28;20053;-75
2023/06/05 07:50:41;;;;;;;2.92;1.38;;;14.10;99.10;;;;;;5024008;28;20132;-76
2023/06/05 07:53:06;;;;;;;4.05;1.30;;;14.10;99.10;;;;;;5015148;28;20046;-76
2023/06/05 07:55:32;;;;;;;3.10;1.10;;;14.10;99.10;;;;;;5008673;28;20132;-76
2023/06/05 07:57:59;;;;;;;2.55;0.88;;;14.10;99.10;;;;;;5024446;28;20056;-76
2023/06/05 08:00:26;;;;;;;2.72;1.33;;;14.20;99.10;;;;;;5021967;28;20037;-76
2023/06/05 08:02:53;;;;;;;2.45;1.10;;;14.20;98.90;;;;;;5037033;28;20039;-75
2023/06/05 08:05:19;;;;;;;4.93;1.10;;;14.20;98.90;;;;;;5029533;28;20042;-75
2023/06/05 08:07:45;;;;;;;3.65;1.40;;;14.20;99.00;;;;;;5042637;28;20713;-75
2023/06/05 08:10:11;;;;;;;5.60;1.27;;;14.20;99.00;;;;;;5039875;28;20090;-76
2023/06/05 08:12:37;;;;;;;2.95;1.30;;;14.30;99.10;;;;;;5030376;28;20053;-75
2023/06/05 08:15:03;;;;;;;3.55;1.52;;;14.30;99.00;;;;;;4999971;28;20051;-74
2023/06/05 08:17:29;;;;;;;3.05;1.20;;;14.30;98.90;;;;;;5010639;28;20112;-76
2023/06/05 08:19:54;;;;;;;1.95;0.95;;;14.30;98.90;;;;;;5021205;28;20047;-75
2023/06/05 08:22:20;;;;;;;3.08;1.45;;;14.30;98.90;;;;;;5040241;28;20480;-76
2023/06/05 08:24:48;;;;;;;2.92;1.20;;;14.40;98.80;;;;;;5028914;28;20049;-76
2023/06/05 08:27:13;;;;;;;2.22;0.95;;;14.40;98.70;;;;;;5019152;28;22184;-76
2023/06/05 08:29:39;;;;;;;3.58;1.20;;;14.40;98.80;;;;;;5038262;28;20044;-76
2023/06/05 08:32:05;;;;;;;3.38;1.25;;;14.40;98.80;;;;;;5037106;28;20041;-80
2023/06/05 08:34:32;;;;;;;2.65;1.13;;;14.50;98.70;;;;;;5024835;28;20033;-79
2023/06/05 08:36:58;;;;;;;2.40;1.10;;;14.50;98.70;;;;;;5022859;28;20048;-79
2023/06/05 08:39:27;;;;;;;3.65;1.30;;;14.60;98.80;;;;;;5020791;28;20498;-79
2023/06/05 08:41:55;;;;;;;2.30;1.30;;;14.70;98.60;;;;;;5030932;28;21876;-79
2023/06/05 08:44:21;;;;;;;3.60;1.35;;;14.70;98.40;;;;;;5019568;28;20203;-78
2023/06/05 08:46:47;;;;;;;4.38;1.48;;;14.70;98.30;;;;;;5004396;28;20046;-78
2023/06/05 08:49:21;;;;;;;3.40;1.20;;;14.70;98.30;;;;;;5017393;28;20076;-79
2023/06/05 08:51:51;;;;;;;2.88;1.52;;;14.70;98.40;;;;;;5018285;28;20037;-82
2023/06/05 08:54:17;;;;;;;2.63;1.20;;;14.80;98.40;;;;;;5019607;28;20079;-83
2023/06/05 08:56:43;;;;;;;3.15;1.20;;;14.90;98.30;;;;;;5019204;28;20040;-83
2023/06/05 08:59:10;;;;;;;2.78;1.40;;;14.90;98.30;;;;;;5019912;28;20040;-80
2023/06/05 09:01:37;;;;;;;2.25;1.05;;;15.00;98.10;;;;;;5012840;28;20546;-83
2023/06/05 09:04:02;;;;;;;3.75;1.20;;;15.00;97.90;;;;;;5005090;28;20033;-83
2023/06/05 09:06:28;;;;;;;2.20;1.00;;;15.00;97.90;;;;;;5021854;28;20044;-83
2023/06/05 09:08:54;;;;;;;3.40;1.23;;;15.00;97.80;;;;;;5006520;28;20037;-82
2023/06/05 09:11:30;;;;;;;2.50;1.20;;;15.00;97.90;;;;;;5003848;28;20080;-84
2023/06/05 09:13:57;;;;;;;2.60;1.10;;;15.00;98.00;;;;;;5017906;28;20044;-78
2023/06/05 09:16:42;;;;;;;3.42;1.40;;;15.10;98.10;;;;;;5040479;28;20123;-83
2023/06/05 09:19:08;;;;;;;3.20;1.42;;;15.10;98.00;;;;;;5028899;28;20029;-83
2023/06/05 09:21:35;;;;;;;4.93;1.60;;;15.20;97.90;;;;;;5024302;28;20404;-84
2023/06/05 09:24:13;;;;;;;2.85;1.10;;;15.20;98.00;;;;;;5016038;28;20384;-83
2023/06/05 09:27:00;;;;;;;1.70;0.93;;;15.20;97.80;;;;;;5007577;28;20052;-83
2023/06/05 09:29:31;;;;;;;3.53;1.20;;;15.30;97.70;;;;;;5019099;28;20047;-85
2023/06/05 09:31:59;;;;;;;2.95;1.30;;;15.30;98.00;;;;;;5024303;28;20064;-84
2023/06/05 09:34:30;;;;;;;3.22;1.20;;;15.40;97.80;;;;;;5020081;28;20041;-82
2023/06/05 09:37:01;;;;;;;3.20;1.42;;;15.40;97.40;;;;;;5019348;28;20502;-79
2023/06/05 09:39:28;;;;;;;3.55;1.30;;;15.40;97.40;;;;;;5038926;28;20040;-79
2023/06/05 09:41:56;;;;;;;3.53;1.10;;;15.50;97.40;;;;;;5019182;28;20037;-79
2023/06/05 09:44:22;;;;;;;2.80;1.33;;;15.50;97.30;;;;;;5039508;28;20116;-79
2023/06/05 09:46:54;;;;;;;3.22;1.30;;;15.50;97.20;;;;;;5022533;28;20043;-79
2023/06/05 09:49:23;;;;;;;2.20;1.10;;;15.50;97.00;;;;;;5004448;28;20131;-79
2023/06/05 09:51:49;;;;;;;2.80;1.15;;;15.60;97.00;;;;;;5020965;28;20062;-79
2023/06/05 09:54:16;;;;;;;2.75;1.10;;;15.60;96.90;;;;;;5021114;28;20438;-78
2023/06/05 09:56:46;;;;;;;2.50;1.00;;;15.60;96.80;;;;;;5042988;28;20036;-79
2023/06/05 09:59:16;;;;;;;3.63;1.00;;;15.60;96.90;;;;;;5039971;28;20033;-78
2023/06/05 10:01:43;;;;;;;3.95;1.35;;;15.70;96.80;;;;;;5037461;28;20037;-79
2023/06/05 10:04:11;;;;;;;3.42;1.10;;;15.70;96.90;;;;;;5014525;28;20041;-79
2023/06/05 10:06:37;;;;;;;2.63;1.20;;;15.70;96.70;;;;;;5030879;28;21400;-78
2023/06/05 10:09:03;;;;;;;2.55;1.17;;;15.90;96.80;;;;;;5010359;28;20571;-79
2023/06/05 10:11:29;;;;;;;3.40;1.60;;;15.90;96.50;;;;;;5002669;28;20033;-78
2023/06/05 10:13:59;;;;;;;3.78;1.38;;;15.90;96.50;;;;;;5014713;28;20487;-78
2023/06/05 10:16:27;;;;;;;2.53;1.17;;;15.90;96.20;;;;;;5013423;28;20033;-74
2023/06/05 10:18:56;;;;;;;2.80;1.02;;;15.90;96.20;;;;;;5016279;28;20248;-79
2023/06/05 10:21:22;;;;;;;3.22;1.15;;;16.00;96.50;;;;;;5013537;28;20048;-78
2023/06/05 10:23:52;;;;;;;3.60;1.63;;;16.00;96.30;;;;;;5031554;28;20545;-80
2023/06/05 10:26:47;;;;;;;2.47;1.00;;;16.00;96.20;;;;;;5012627;28;20137;-81
2023/06/05 10:29:22;;;;;;;2.85;1.25;;;16.00;96.10;;;;;;5038010;28;20045;-80
2023/06/05 10:32:02;;;;;;;3.20;1.30;;;16.00;96.20;;;;;;5006710;28;20041;-79
2023/06/05 10:34:35;;;;;;;2.85;1.23;;;16.10;96.30;;;;;;5019244;28;20106;-78
2023/06/05 10:37:32;;;;;;;3.72;1.30;;;16.20;96.20;;;;;;5017911;28;20076;-78
2023/06/05 10:39:57;;;;;;;;;;;16.20;96.20;;;;;;5020665;28;20045;-77
2023/06/05 10:42:28;;;;;;;4.55;1.60;;;16.20;95.80;;;;;;5024602;28;19916;-77
2023/06/05 10:44:54;;;;;;;4.10;1.38;;;16.30;96.10;;;;;;5041714;28;20033;-78
2023/06/05 10:47:32;;;;;;;4.78;1.80;;;16.40;96.10;;;;;;5025988;28;20039;-78
2023/06/05 10:50:19;;;;;;;4.63;1.40;;;16.50;95.50;;;;;;5038277;28;20565;-77
2023/06/05 10:52:46;;;;;;;2.50;1.25;;;16.50;95.60;;;;;;5043594;28;20040;-77
2023/06/05 10:55:12;;;;;;;3.58;1.55;;;16.50;95.80;;;;;;5022201;28;20056;-78
2023/06/05 10:58:10;;;;;;;3.60;1.58;;;16.60;95.60;;;;;;5040859;28;20037;-77
2023/06/05 11:00:38;;;;;;;2.90;1.30;;;16.60;95.50;;;;;;5006388;28;20254;-77
2023/06/05 11:03:05;;;;;;;3.03;1.35;;;16.60;95.70;;;;;;5024156;28;20044;-77
2023/06/05 11:05:32;;;;;;;4.95;1.30;;;16.70;95.50;;;;;;5042929;28;20530;-78
2023/06/05 11:08:15;;;;;;;3.53;1.48;;;16.70;95.30;;;;;;5009205;28;20083;-77
2023/06/05 11:11:09;;;;;;;2.22;1.10;;;16.70;94.70;;;;;;5024310;28;20559;-78
2023/06/05 11:13:58;;;;;;;2.83;1.40;;;16.70;95.10;;;;;;5025054;28;20037;-78
2023/06/05 11:16:30;;;;;;;3.53;1.02;;;16.80;94.90;;;;;;5005489;28;20128;-77
2023/06/05 11:19:23;;;;;;;2.90;1.20;;;16.80;94.70;;;;;;5041603;28;20033;-78
2023/06/05 11:22:11;;;;;;;5.13;1.30;;;16.80;93.60;;;;;;5002108;28;20221;-77
2023/06/05 11:24:37;;;;;;;2.05;1.10;;;16.80;94.30;;;;;;5017610;28;20049;-77
2023/06/05 11:27:05;;;;;;;3.33;1.25;;;16.80;94.90;;;;;;5040931;28;20135;-77
2023/06/05 11:29:31;;;;;;;4.15;1.65;;;16.90;94.90;;;;;;5024388;28;20554;-78
2023/06/05 11:31:57;;;;;;;2.45;1.20;;;16.90;94.90;;;;;;5023601;28;20041;-78
2023/06/05 11:34:23;;;;;;;3.92;1.17;;;17.00;94.70;;;;;;5043249;28;20029;-77
2023/06/05 11:36:49;;;;;;;3.72;1.20;;;17.10;95.00;;;;;;5024967;28;20036;-78
2023/06/05 11:39:15;;;;;;;3.20;1.17;;;17.00;94.70;;;;;;5041091;28;20085;-76
2023/06/05 11:41:45;;;;;;;5.25;1.58;;;17.10;94.70;;;;;;5007585;28;20040;-78
2023/06/05 11:44:11;;;;;;;4.72;1.30;;;17.20;94.20;;;;;;5022752;28;21344;-78
2023/06/05 11:46:41;;;;;;;2.53;1.27;;;17.20;94.30;;;;;;5025945;28;21710;-77
2023/06/05 11:49:25;;;;;;;2.95;1.25;;;17.20;94.00;;;;;;5025653;28;20123;-78
2023/06/05 11:51:50;;;;;;;3.22;1.20;;;17.20;93.50;;;;;;5022660;28;20072;-78
2023/06/05 11:54:53;;;;;;;3.38;1.42;;;17.30;94.00;;;;;;5043129;28;20064;-78
2023/06/05 11:57:19;;;;;;;2.97;1.10;;;17.30;93.40;;;;;;5018536;28;20506;-77
2023/06/05 11:59:48;;;;;;;2.30;1.33;;;17.30;93.90;;;;;;5012480;28;20094;-77
2023/06/05 12:02:13;;;;;;;2.10;1.13;;;17.40;94.00;;;;;;5013206;28;20033;-77
2023/06/05 12:04:41;;;;;;;2.83;1.10;;;17.40;94.00;;;;;;5010974;28;20032;-78
2023/06/05 12:07:06;;;;;;;3.58;1.20;;;17.40;93.80;;;;;;5028320;28;20115;-77
2023/06/05 12:09:33;;;;;;;2.80;1.10;;;17.50;93.90;;;;;;5026190;28;20451;-77
2023/06/05 12:12:06;;;;;;;2.45;1.08;;;17.50;93.60;;;;;;5027522;28;20037;-77
2023/06/05 12:14:33;;;;;;;3.35;1.15;;;17.50;93.30;;;;;;5042049;28;20656;-78
2023/06/05 12:16:59;;;;;;;3.10;1.42;;;17.50;93.40;;;;;;5009479;28;20046;-77
2023/06/05 12:19:25;;;;;;;5.20;1.50;;;17.50;93.50;;;;;;5027475;28;20186;-78
2023/06/05 12:22:01;;;;;;;2.85;1.25;;;17.50;93.50;;;;;;5022143;28;20573;-77
2023/06/05 12:24:27;;;;;;;2.53;1.00;;;17.50;93.50;;;;;;5004985;28;20514;-77
2023/06/05 12:26:58;;;;;;;2.47;1.17;;;17.50;93.40;;;;;;5005663;28;20132;-78
2023/06/05 12:29:30;;;;;;;5.28;1.63;;;17.60;93.40;;;;;;5009010;28;20049;-78
2023/06/05 12:32:01;;;;;;;3.08;1.38;;;17.70;93.40;;;;;;5026410;28;20071;-77
2023/06/05 12:34:44;;;;;;;3.15;1.30;;;17.80;93.30;;;;;;5022181;28;20079;-78
2023/06/05 12:37:21;;;;;;;4.25;1.30;;;17.80;92.50;;;;;;5009854;28;20120;-78
2023/06/05 12:39:47;;;;;;;1.85;0.93;;;17.80;93.20;;;;;;5024246;28;20041;-78
2023/06/05 12:42:13;;;;;;;5.05;1.55;;;17.80;93.30;;;;;;5025355;28;20048;-78
2023/06/05 12:44:39;;;;;;;3.20;1.27;;;17.90;93.10;;;;;;5023811;28;20398;-78
2023/06/05 12:47:05;;;;;;;2.65;1.20;;;17.80;93.00;;;;;;5010644;28;20041;-77
2023/06/05 12:49:31;;;;;;;2.70;1.10;;;17.90;93.20;;;;;;5040401;28;20040;-78
2023/06/05 12:51:57;;;;;;;4.30;1.35;;;17.90;92.90;;;;;;5042178;28;20041;-77